Time;durP1;ratioP1;P1;durP2;ratioP2;P2;SDS_P1;SDS_P2;PMS_P1;PMS_P2;Temp;Humidity;BMP_temperature;BMP_pressure;BME280_temperature;BME280_humidity;BME280_pressure;Samples;Min_cycle;Max_cycle;Signal;HPM_P1;HPM_P2
2023/02/08 00:01:06;;;;;;;16.83;15.02;;;0.30;99.90;;;;;;5030261;28;20308;-73
2023/02/08 00:03:33;;;;;;;16.08;14.55;;;0.30;99.90;;;;;;5033330;28;20235;-73
2023/02/08 00:06:00;;;;;;;15.50;13.90;;;0.40;99.90;;;;;;5033801;28;20314;-73
2023/02/08 00:08:29;;;;;;;16.90;14.88;;;0.40;99.90;;;;;;5034417;28;20286;-73
2023/02/08 00:10:56;;;;;;;14.30;12.90;;;0.40;99.90;;;;;;5032525;28;20305;-72
2023/02/08 00:13:23;;;;;;;15.95;14.32;;;0.40;99.90;;;;;;5027242;28;20203;-72
2023/02/08 00:15:54;;;;;;;16.48;14.82;;;0.40;99.90;;;;;;5029844;28;20314;-72
2023/02/08 00:18:21;;;;;;;14.35;12.95;;;0.50;99.90;;;;;;5030355;28;20279;-71
2023/02/08 00:20:49;;;;;;;16.60;14.90;;;0.50;99.90;;;;;;5030209;28;20306;-71
2023/02/08 00:23:16;;;;;;;15.48;13.88;;;0.50;99.90;;;;;;5028288;28;20739;-73
2023/02/08 00:25:44;;;;;;;13.45;12.13;;;0.50;99.90;;;;;;5038803;28;20302;-73
2023/02/08 00:28:14;;;;;;;14.98;13.55;;;0.50;99.90;;;;;;5032288;28;20740;-73
2023/02/08 00:30:42;;;;;;;15.48;13.93;;;0.50;99.90;;;;;;5030981;28;20676;-72
2023/02/08 00:33:09;;;;;;;15.20;13.60;;;0.50;99.90;;;;;;5025388;28;20299;-72
2023/02/08 00:35:36;;;;;;;14.13;12.82;;;0.50;99.90;;;;;;5022262;28;20318;-72
2023/02/08 00:38:03;;;;;;;14.10;12.77;;;0.40;99.90;;;;;;5035165;28;20292;-71
2023/02/08 00:40:31;;;;;;;13.93;12.52;;;0.40;99.90;;;;;;5028682;28;20862;-72
2023/02/08 00:42:59;;;;;;;14.90;13.40;;;0.40;99.90;;;;;;5032321;28;20277;-72
2023/02/08 00:45:26;;;;;;;14.10;12.70;;;0.40;99.90;;;;;;5028677;28;20654;-72
2023/02/08 00:47:53;;;;;;;15.02;13.48;;;0.40;99.90;;;;;;5037887;28;20291;-72
2023/02/08 00:50:20;;;;;;;15.38;13.77;;;0.40;99.90;;;;;;5038272;28;20327;-71
2023/02/08 00:52:47;;;;;;;14.02;12.63;;;0.40;99.90;;;;;;5028879;28;20283;-72
2023/02/08 00:55:14;;;;;;;14.40;13.00;;;0.30;99.90;;;;;;5031932;28;20302;-72
2023/02/08 00:57:41;;;;;;;14.65;13.25;;;0.40;99.90;;;;;;5030421;28;20287;-72
2023/02/08 01:00:12;;;;;;;14.20;12.90;;;0.30;99.90;;;;;;5032431;28;20298;-72
2023/02/08 01:02:39;;;;;;;14.82;13.35;;;0.30;99.90;;;;;;5031221;28;20209;-72
2023/02/08 01:05:07;;;;;;;14.77;13.38;;;0.20;99.90;;;;;;5026217;28;20681;-72
2023/02/08 01:07:35;;;;;;;15.00;13.50;;;0.20;99.90;;;;;;5033743;28;20689;-72
2023/02/08 01:10:02;;;;;;;15.20;13.70;;;0.20;99.90;;;;;;5028199;28;20306;-73
2023/02/08 01:12:29;;;;;;;14.98;13.48;;;0.10;99.90;;;;;;5028809;28;20273;-73
2023/02/08 01:14:56;;;;;;;15.35;13.75;;;0.10;99.90;;;;;;5031619;28;20302;-72
2023/02/08 01:17:25;;;;;;;14.65;13.25;;;0.10;99.90;;;;;;5029285;28;20237;-72
2023/02/08 01:19:52;;;;;;;15.02;13.15;;;0.00;99.90;;;;;;5025633;28;20347;-72
2023/02/08 01:22:19;;;;;;;14.15;12.75;;;0.10;99.90;;;;;;5033302;28;20291;-72
2023/02/08 01:24:46;;;;;;;15.82;14.32;;;0.00;99.90;;;;;;5031958;28;20325;-72
2023/02/08 01:27:13;;;;;;;13.88;12.57;;;0.00;99.90;;;;;;5029779;28;20287;-72
2023/02/08 01:29:40;;;;;;;14.43;12.93;;;0.00;99.90;;;;;;5025987;28;20208;-72
2023/02/08 01:32:07;;;;;;;14.48;13.07;;;0.00;99.90;;;;;;5037749;28;20643;-72
2023/02/08 01:34:35;;;;;;;14.77;13.38;;;0.00;99.90;;;;;;5031732;28;20735;-72
2023/02/08 01:37:02;;;;;;;15.82;14.30;;;0.00;99.90;;;;;;5027414;28;20282;-72
2023/02/08 01:39:29;;;;;;;15.13;13.55;;;-0.10;99.90;;;;;;5028264;28;20302;-72
2023/02/08 01:41:56;;;;;;;15.05;13.63;;;0.00;99.90;;;;;;5031397;28;20671;-72
2023/02/08 01:45:16;;;;;;;14.15;12.80;;;0.00;99.90;;;;;;5031174;28;20290;-72
2023/02/08 01:47:45;;;;;;;15.30;13.82;;;0.00;99.90;;;;;;4985502;28;20205;-73
2023/02/08 01:50:14;;;;;;;14.98;13.48;;;0.00;99.90;;;;;;4981719;28;20328;-73
2023/02/08 01:52:43;;;;;;;14.82;13.40;;;0.00;99.90;;;;;;5007457;28;20749;-72
2023/02/08 01:55:15;;;;;;;15.05;13.48;;;-0.10;99.90;;;;;;5032955;28;20302;-71
2023/02/08 01:57:44;;;;;;;15.32;13.82;;;-0.10;99.90;;;;;;5026609;28;20246;-72
2023/02/08 02:00:16;;;;;;;16.08;13.50;;;-0.10;99.90;;;;;;5035914;28;20314;-71
2023/02/08 02:02:46;;;;;;;15.10;13.70;;;-0.10;99.90;;;;;;5034674;28;20298;-71
2023/02/08 02:05:16;;;;;;;14.63;13.23;;;-0.20;99.90;;;;;;5024070;28;20299;-73
2023/02/08 02:07:44;;;;;;;15.50;14.00;;;-0.20;99.90;;;;;;5033597;28;20747;-73
2023/02/08 02:10:16;;;;;;;15.07;13.45;;;-0.20;99.90;;;;;;5029269;28;20315;-71
2023/02/08 02:12:43;;;;;;;14.65;13.25;;;-0.20;99.90;;;;;;5030334;28;20294;-72
2023/02/08 02:15:11;;;;;;;14.77;13.23;;;-0.20;99.90;;;;;;5023781;28;20299;-73
2023/02/08 02:17:39;;;;;;;14.50;13.20;;;-0.20;99.90;;;;;;5034401;28;20200;-72
2023/02/08 02:20:13;;;;;;;16.02;14.40;;;-0.20;99.90;;;;;;5030837;28;20314;-72
2023/02/08 02:23:08;;;;;;;14.57;13.07;;;-0.20;99.90;;;;;;5026792;28;20201;-73
2023/02/08 02:26:07;;;;;;;14.77;13.25;;;-0.20;99.90;;;;;;5024836;28;20788;-72
2023/02/08 02:29:07;;;;;;;15.32;13.73;;;-0.30;99.90;;;;;;5022086;28;20362;-72
2023/02/08 02:31:58;;;;;;;13.77;12.57;;;-0.30;99.90;;;;;;5012582;28;20259;-72
2023/02/08 02:34:30;;;;;;;15.98;13.90;;;-0.40;99.90;;;;;;5031309;28;20724;-71
2023/02/08 02:37:05;;;;;;;14.80;13.40;;;-0.40;99.90;;;;;;5031237;28;20282;-73
2023/02/08 02:39:40;;;;;;;15.02;13.63;;;-0.50;99.90;;;;;;5028877;28;20254;-72
2023/02/08 02:45:06;;;;;;;14.45;12.98;;;-0.40;99.90;;;;;;5033370;28;20218;-72
2023/02/08 02:47:41;;;;;;;14.75;13.40;;;-0.40;99.90;;;;;;5032008;28;20195;-71
2023/02/08 02:50:17;;;;;;;14.00;12.60;;;-0.40;99.90;;;;;;5030869;28;20298;-72
2023/02/08 02:52:50;;;;;;;13.88;12.57;;;-0.40;99.90;;;;;;5032122;28;20729;-72
2023/02/08 02:55:23;;;;;;;14.48;13.07;;;-0.40;99.90;;;;;;5032391;28;20306;-73
2023/02/08 02:57:53;;;;;;;15.55;13.93;;;-0.50;99.90;;;;;;5027403;28;20204;-73
2023/02/08 03:00:24;;;;;;;14.43;13.02;;;-0.50;99.90;;;;;;5030984;28;20314;-72
2023/02/08 03:02:54;;;;;;;15.82;14.10;;;-0.50;99.90;;;;;;5037670;28;20445;-72
2023/02/08 03:05:22;;;;;;;14.88;13.48;;;-0.40;99.90;;;;;;5034143;28;20703;-71
2023/02/08 03:08:23;;;;;;;13.80;12.48;;;-0.40;99.90;;;;;;5029097;28;20295;-72
2023/02/08 03:11:06;;;;;;;14.10;12.80;;;-0.50;99.90;;;;;;5013986;28;20246;-72
2023/02/08 03:13:48;;;;;;;15.73;14.13;;;-0.50;99.90;;;;;;5030502;28;20668;-72
2023/02/08 03:16:19;;;;;;;14.80;13.30;;;-0.50;99.90;;;;;;5029634;28;20246;-72
2023/02/08 03:19:05;;;;;;;14.73;13.32;;;-0.60;99.90;;;;;;5033435;28;20291;-72
2023/02/08 03:21:40;;;;;;;15.95;14.30;;;-0.60;99.90;;;;;;5030493;28;20247;-70
2023/02/08 03:24:22;;;;;;;14.65;13.15;;;-0.60;99.90;;;;;;5037275;28;20289;-73
2023/02/08 03:26:55;;;;;;;14.45;13.05;;;-0.60;99.90;;;;;;5035800;28;20358;-72
2023/02/08 03:29:30;;;;;;;15.13;13.63;;;-0.70;99.90;;;;;;5041410;28;20290;-72
2023/02/08 03:32:00;;;;;;;15.30;13.77;;;-0.70;99.90;;;;;;5031042;28;20206;-72
2023/02/08 03:34:36;;;;;;;14.02;12.73;;;-0.70;99.90;;;;;;5035230;28;20302;-70
2023/02/08 03:37:08;;;;;;;14.10;12.77;;;-0.70;99.90;;;;;;5036032;28;20731;-72
2023/02/08 03:39:38;;;;;;;13.35;12.05;;;-0.80;99.90;;;;;;5027968;28;20275;-71
2023/02/08 03:42:11;;;;;;;14.32;12.82;;;-0.80;99.90;;;;;;5035071;28;20244;-73
2023/02/08 03:44:40;;;;;;;14.32;13.00;;;-0.80;99.90;;;;;;5033533;28;20215;-71
2023/02/08 03:47:13;;;;;;;15.10;13.60;;;-0.80;99.90;;;;;;5037592;28;20286;-71
2023/02/08 03:49:44;;;;;;;14.57;13.27;;;-0.80;99.90;;;;;;5034702;28;20306;-71
2023/02/08 03:52:12;;;;;;;15.02;13.35;;;-0.80;99.90;;;;;;5035976;28;20274;-71
2023/02/08 03:54:44;;;;;;;13.88;12.57;;;-0.80;99.90;;;;;;5032769;28;20308;-70
2023/02/08 03:57:17;;;;;;;14.90;13.50;;;-0.90;99.90;;;;;;5039712;28;20283;-71
2023/02/08 03:59:50;;;;;;;14.90;13.50;;;-0.90;99.90;;;;;;5036205;28;20253;-71
2023/02/08 04:02:20;;;;;;;14.30;13.00;;;-0.90;99.90;;;;;;5031314;28;20306;-71
2023/02/08 04:04:51;;;;;;;15.25;13.77;;;-0.80;99.90;;;;;;5031366;28;20598;-71
2023/02/08 04:07:19;;;;;;;15.43;13.93;;;-0.80;99.90;;;;;;5034127;28;20748;-72
2023/02/08 04:09:47;;;;;;;15.63;14.13;;;-0.90;99.90;;;;;;5031229;28;20299;-71
2023/02/08 04:12:15;;;;;;;14.27;12.88;;;-0.90;99.90;;;;;;5018503;28;20480;-72
2023/02/08 04:14:42;;;;;;;14.10;12.63;;;-0.90;99.90;;;;;;5029726;28;20222;-71
2023/02/08 04:17:09;;;;;;;13.88;12.57;;;-0.90;99.90;;;;;;5033969;28;20670;-71
2023/02/08 04:19:36;;;;;;;15.60;14.00;;;-0.90;99.90;;;;;;5032633;28;20326;-70
2023/02/08 04:22:04;;;;;;;15.27;13.77;;;-0.90;99.90;;;;;;5044300;28;20252;-71
2023/02/08 04:24:31;;;;;;;14.55;13.15;;;-0.90;99.90;;;;;;5040053;28;20251;-70
2023/02/08 04:26:58;;;;;;;14.25;12.95;;;-0.80;99.90;;;;;;5037187;28;20274;-70
2023/02/08 04:29:25;;;;;;;13.90;12.50;;;-0.80;99.90;;;;;;5035345;28;20274;-72
2023/02/08 04:31:52;;;;;;;14.70;13.20;;;-0.80;99.90;;;;;;5032747;28;20279;-71
2023/02/08 04:34:19;;;;;;;14.00;12.63;;;-0.90;99.90;;;;;;5034479;28;20286;-71
2023/02/08 04:36:46;;;;;;;13.93;12.52;;;-0.90;99.90;;;;;;5033374;28;20763;-71
2023/02/08 04:39:15;;;;;;;14.50;13.20;;;-1.00;99.90;;;;;;5038875;28;20290;-71
2023/02/08 04:41:42;;;;;;;14.93;13.52;;;-0.90;99.90;;;;;;5038255;28;20310;-71
2023/02/08 04:44:09;;;;;;;14.35;12.93;;;-1.00;99.90;;;;;;5034809;28;20242;-72
2023/02/08 04:46:36;;;;;;;14.88;13.25;;;-1.00;99.90;;;;;;5038564;28;20278;-72
2023/02/08 04:49:03;;;;;;;14.68;13.38;;;-1.10;99.90;;;;;;5033704;28;20279;-70
2023/02/08 04:51:30;;;;;;;14.60;13.27;;;-1.10;99.90;;;;;;5028362;28;20302;-71
2023/02/08 04:53:57;;;;;;;14.02;12.63;;;-1.10;99.90;;;;;;5030320;28;20732;-72
2023/02/08 04:56:25;;;;;;;14.13;12.38;;;-1.10;99.90;;;;;;5038060;28;20318;-71
2023/02/08 04:58:52;;;;;;;14.68;13.18;;;-1.10;99.90;;;;;;5040494;28;20278;-71
2023/02/08 05:01:19;;;;;;;14.30;12.93;;;-1.10;99.90;;;;;;5031578;28;20792;-71
2023/02/08 05:03:46;;;;;;;13.00;11.75;;;-1.10;99.90;;;;;;5038520;28;20202;-72
2023/02/08 05:06:13;;;;;;;12.25;11.05;;;-1.00;99.90;;;;;;5034116;28;20322;-71
2023/02/08 05:08:40;;;;;;;13.38;12.20;;;-1.00;99.90;;;;;;5035936;28;20719;-70
2023/02/08 05:11:07;;;;;;;12.68;11.43;;;-1.00;99.90;;;;;;5030562;28;20318;-72
2023/02/08 05:13:36;;;;;;;12.52;11.32;;;-1.00;99.90;;;;;;5035924;28;20249;-71
2023/02/08 05:16:03;;;;;;;14.45;12.93;;;-1.00;99.90;;;;;;5037712;28;20315;-71
2023/02/08 05:18:30;;;;;;;15.50;13.63;;;-1.00;99.90;;;;;;5031388;28;20286;-71
2023/02/08 05:20:58;;;;;;;14.40;12.88;;;-1.00;99.90;;;;;;5039257;28;20665;-71
2023/02/08 05:23:25;;;;;;;14.30;12.85;;;-1.00;99.90;;;;;;5034505;28;20306;-72
2023/02/08 05:25:52;;;;;;;12.32;11.13;;;-1.00;99.90;;;;;;5033884;28;20299;-72
2023/02/08 05:28:20;;;;;;;12.27;11.07;;;-1.00;99.90;;;;;;5034260;28;20283;-71
2023/02/08 05:30:48;;;;;;;13.60;12.35;;;-1.00;99.90;;;;;;5030961;28;20303;-71
2023/02/08 05:33:16;;;;;;;11.52;10.48;;;-1.10;99.90;;;;;;5030938;28;22211;-70
2023/02/08 05:35:44;;;;;;;12.23;10.95;;;-1.10;99.90;;;;;;5031451;28;20692;-71
2023/02/08 05:38:11;;;;;;;11.68;10.45;;;-1.10;99.90;;;;;;5033940;28;20206;-71
2023/02/08 05:40:38;;;;;;;11.15;10.10;;;-1.10;99.90;;;;;;5036090;28;20298;-70
2023/02/08 05:43:05;;;;;;;11.18;10.15;;;-1.20;99.90;;;;;;5032546;28;20294;-71
2023/02/08 05:45:32;;;;;;;11.07;10.15;;;-1.20;99.90;;;;;;5030363;28;20724;-71
2023/02/08 05:48:01;;;;;;;12.02;10.75;;;-1.20;99.90;;;;;;5035974;28;20285;-70
2023/02/08 05:50:28;;;;;;;10.95;9.95;;;-1.30;99.90;;;;;;5033566;28;20302;-72
2023/02/08 05:52:55;;;;;;;10.57;9.68;;;-1.30;99.90;;;;;;5031873;28;20670;-70
2023/02/08 05:55:22;;;;;;;10.50;9.63;;;-1.40;99.90;;;;;;5034166;28;20348;-70
2023/02/08 05:57:49;;;;;;;10.27;9.30;;;-1.40;99.90;;;;;;5035389;28;20342;-71
2023/02/08 06:00:17;;;;;;;9.80;8.90;;;-1.40;99.90;;;;;;5032972;28;20310;-70
2023/02/08 06:02:43;;;;;;;10.73;9.82;;;-1.40;99.90;;;;;;5037218;28;20298;-71
2023/02/08 06:05:12;;;;;;;10.55;9.55;;;-1.40;99.90;;;;;;5034513;28;20251;-70
2023/02/08 06:07:39;;;;;;;10.50;9.60;;;-1.40;99.90;;;;;;5034521;28;20297;-70
2023/02/08 06:10:07;;;;;;;9.95;9.05;;;-1.50;99.90;;;;;;5014066;28;20212;-72
2023/02/08 06:12:35;;;;;;;10.45;9.55;;;-1.50;99.90;;;;;;5039079;28;20278;-71
2023/02/08 06:15:02;;;;;;;10.80;9.80;;;-1.60;99.90;;;;;;5041246;28;20223;-72
2023/02/08 06:17:29;;;;;;;9.85;8.98;;;-1.60;99.90;;;;;;5031520;28;20294;-72
2023/02/08 06:19:56;;;;;;;10.43;9.43;;;-1.60;99.90;;;;;;5038112;28;20310;-72
2023/02/08 06:22:25;;;;;;;10.10;9.23;;;-1.60;99.90;;;;;;5035164;28;20315;-71
2023/02/08 06:24:52;;;;;;;10.90;9.90;;;-1.60;99.90;;;;;;5036034;28;20356;-72
2023/02/08 06:27:19;;;;;;;11.02;10.05;;;-1.60;99.90;;;;;;5031359;28;20704;-72
2023/02/08 06:29:45;;;;;;;10.85;9.95;;;-1.60;99.90;;;;;;5030363;28;20298;-72
2023/02/08 06:32:12;;;;;;;11.55;10.57;;;-1.60;99.90;;;;;;5031769;28;20318;-72
2023/02/08 06:34:39;;;;;;;11.20;10.20;;;-1.60;99.90;;;;;;5029049;28;20262;-71
2023/02/08 06:37:06;;;;;;;11.68;9.88;;;-1.60;99.90;;;;;;5030980;28;20315;-71
2023/02/08 06:39:35;;;;;;;11.48;10.35;;;-1.60;99.90;;;;;;5029867;28;20298;-71
2023/02/08 06:42:02;;;;;;;10.93;10.02;;;-1.60;99.90;;;;;;5031724;28;20302;-70
2023/02/08 06:44:29;;;;;;;10.57;9.70;;;-1.60;99.90;;;;;;5034916;28;20306;-72
2023/02/08 06:46:56;;;;;;;10.60;9.70;;;-1.60;99.90;;;;;;5035988;28;20227;-71
2023/02/08 06:49:23;;;;;;;10.75;9.75;;;-1.60;99.90;;;;;;5033222;28;20239;-71
2023/02/08 06:51:50;;;;;;;11.65;10.43;;;-1.60;99.90;;;;;;5027538;28;20281;-71
2023/02/08 06:54:17;;;;;;;10.70;9.70;;;-1.50;99.90;;;;;;5029059;28;20210;-71
2023/02/08 06:56:46;;;;;;;10.77;9.77;;;-1.50;99.90;;;;;;5024968;28;20791;-72
2023/02/08 06:59:13;;;;;;;11.00;9.77;;;-1.50;99.90;;;;;;5019428;28;20330;-70
2023/02/08 07:01:40;;;;;;;11.93;9.68;;;-1.40;99.90;;;;;;5024159;28;20309;-72
2023/02/08 07:04:07;;;;;;;10.93;9.82;;;-1.40;99.90;;;;;;5026118;28;20298;-71
2023/02/08 07:06:34;;;;;;;10.60;9.52;;;-1.40;99.90;;;;;;5025531;28;20299;-71
2023/02/08 07:09:03;;;;;;;9.70;8.80;;;-1.50;99.90;;;;;;5024045;28;20303;-71
2023/02/08 07:11:30;;;;;;;10.63;9.73;;;-1.50;99.90;;;;;;5022809;28;20254;-71
2023/02/08 07:13:58;;;;;;;9.90;8.50;;;-1.50;99.90;;;;;;5029092;28;20278;-71
2023/02/08 07:16:25;;;;;;;9.90;9.10;;;-1.50;99.90;;;;;;5023805;28;20258;-71
2023/02/08 07:18:52;;;;;;;8.65;7.85;;;-1.50;99.90;;;;;;5027139;28;20290;-71
2023/02/08 07:21:20;;;;;;;9.23;8.43;;;-1.40;99.90;;;;;;5023393;28;20289;-72
2023/02/08 07:23:47;;;;;;;8.65;7.85;;;-1.40;99.90;;;;;;5029840;28;20226;-72
2023/02/08 07:26:14;;;;;;;8.75;7.85;;;-1.50;99.90;;;;;;5023452;28;20351;-72
2023/02/08 07:28:41;;;;;;;10.02;9.02;;;-1.60;99.90;;;;;;5021740;28;20200;-72
2023/02/08 07:31:13;;;;;;;9.27;8.38;;;-1.60;99.90;;;;;;5025782;28;20673;-71
2023/02/08 07:33:40;;;;;;;9.75;8.85;;;-1.50;99.90;;;;;;5024620;28;20274;-72
2023/02/08 07:36:09;;;;;;;9.93;8.93;;;-1.40;99.90;;;;;;5024288;28;20298;-72
2023/02/08 07:38:37;;;;;;;9.73;8.85;;;-0.70;99.90;;;;;;5027354;28;20287;-72
2023/02/08 07:41:06;;;;;;;8.55;7.65;;;0.20;99.90;;;;;;5025552;28;20748;-73
2023/02/08 07:43:34;;;;;;;8.20;7.47;;;1.00;99.90;;;;;;5025316;28;20306;-73
2023/02/08 07:46:06;;;;;;;7.95;7.15;;;1.60;99.90;;;;;;5030716;28;20227;-72
2023/02/08 07:48:35;;;;;;;7.20;6.47;;;2.20;99.90;;;;;;5029193;28;20223;-72
2023/02/08 07:51:02;;;;;;;8.75;7.72;;;2.50;99.90;;;;;;5024499;28;20231;-73
2023/02/08 07:53:30;;;;;;;7.18;6.57;;;2.70;99.90;;;;;;5021720;28;20199;-72
2023/02/08 07:55:57;;;;;;;7.45;6.85;;;3.10;99.90;;;;;;5028455;28;20335;-72
2023/02/08 07:58:26;;;;;;;6.30;5.82;;;3.40;99.90;;;;;;5021367;28;20333;-72
2023/02/08 08:00:53;;;;;;;6.95;6.05;;;3.90;99.90;;;;;;5025251;28;20562;-70
2023/02/08 08:03:21;;;;;;;6.40;5.85;;;4.30;99.90;;;;;;5030466;28;20302;-72
2023/02/08 08:05:50;;;;;;;7.30;6.57;;;4.90;99.90;;;;;;5029001;28;20307;-72
2023/02/08 08:08:17;;;;;;;6.38;5.88;;;5.40;99.90;;;;;;5028563;28;20213;-71
2023/02/08 08:10:45;;;;;;;6.68;6.18;;;5.90;99.90;;;;;;5027257;28;20314;-72
2023/02/08 08:13:12;;;;;;;6.53;5.93;;;6.20;99.90;;;;;;5027946;28;20282;-72
2023/02/08 08:15:39;;;;;;;6.28;5.78;;;6.00;99.90;;;;;;5029399;28;20310;-71
2023/02/08 08:18:07;;;;;;;7.13;6.53;;;5.80;99.90;;;;;;5027407;28;20298;-72
2023/02/08 08:20:34;;;;;;;6.47;5.95;;;5.60;99.90;;;;;;5026701;28;20771;-72
2023/02/08 08:23:03;;;;;;;6.18;5.68;;;5.30;99.90;;;;;;5028198;28;20341;-73
2023/02/08 08:25:30;;;;;;;8.27;5.43;;;5.40;99.90;;;;;;5032881;28;20310;-72
2023/02/08 08:27:57;;;;;;;6.15;5.65;;;5.40;99.90;;;;;;5021729;28;20306;-72
2023/02/08 08:30:24;;;;;;;6.80;6.18;;;5.70;99.90;;;;;;5025854;28;20310;-72
2023/02/08 08:32:51;;;;;;;6.70;6.15;;;5.80;99.90;;;;;;5024491;28;20291;-72
2023/02/08 08:35:18;;;;;;;6.80;6.20;;;5.90;99.90;;;;;;5025359;28;20314;-72
2023/02/08 08:37:46;;;;;;;7.50;5.80;;;6.10;99.90;;;;;;5025315;28;20242;-72
2023/02/08 08:40:14;;;;;;;7.25;6.65;;;6.50;99.90;;;;;;5026873;28;20306;-72
2023/02/08 08:42:41;;;;;;;6.63;6.03;;;6.70;99.90;;;;;;5026672;28;20315;-73
2023/02/08 08:45:09;;;;;;;7.28;6.57;;;6.80;99.90;;;;;;5028551;28;20652;-73
2023/02/08 08:47:36;;;;;;;7.25;6.55;;;6.90;99.90;;;;;;5025768;28;20290;-73
2023/02/08 08:50:04;;;;;;;6.72;6.18;;;7.00;99.90;;;;;;5029554;28;20310;-72
2023/02/08 08:52:31;;;;;;;7.38;6.53;;;7.10;99.90;;;;;;5024661;28;20283;-72
2023/02/08 08:54:58;;;;;;;8.13;7.43;;;7.30;99.90;;;;;;5024238;28;20311;-72
2023/02/08 08:57:26;;;;;;;7.10;6.07;;;7.60;99.90;;;;;;5028293;28;20771;-74
2023/02/08 08:59:54;;;;;;;7.32;6.63;;;7.40;99.90;;;;;;5029801;28;20222;-72
2023/02/08 09:02:21;;;;;;;9.02;6.18;;;7.20;99.90;;;;;;5026003;28;20212;-72
2023/02/08 09:04:48;;;;;;;9.10;6.45;;;6.90;99.90;;;;;;5025510;28;20318;-74
2023/02/08 09:07:15;;;;;;;6.63;6.03;;;6.90;99.90;;;;;;5027120;28;20557;-73
2023/02/08 09:09:46;;;;;;;7.05;6.35;;;6.90;99.90;;;;;;5023049;28;20216;-73
2023/02/08 09:12:14;;;;;;;7.22;6.45;;;6.90;99.90;;;;;;5023234;28;20383;-73
2023/02/08 09:14:43;;;;;;;6.80;6.20;;;7.00;99.90;;;;;;5028326;28;20228;-73
2023/02/08 09:17:11;;;;;;;7.03;6.20;;;7.50;99.90;;;;;;5027085;28;20200;-74
2023/02/08 09:19:38;;;;;;;9.73;6.40;;;8.00;99.90;;;;;;5023619;28;20223;-73
2023/02/08 09:22:06;;;;;;;6.97;6.38;;;8.20;99.90;;;;;;5023931;28;20307;-73
2023/02/08 09:24:33;;;;;;;6.55;5.95;;;8.50;99.90;;;;;;5023475;28;20310;-74
2023/02/08 09:27:01;;;;;;;6.97;6.28;;;8.60;99.90;;;;;;5026962;28;20609;-74
2023/02/08 09:29:29;;;;;;;7.75;6.97;;;8.70;99.90;;;;;;5025593;28;20282;-73
2023/02/08 09:31:57;;;;;;;7.13;6.45;;;8.60;99.70;;;;;;5033685;28;20195;-72
2023/02/08 09:34:24;;;;;;;7.18;6.53;;;8.70;99.60;;;;;;5027049;28;20735;-73
2023/02/08 09:36:52;;;;;;;7.35;6.30;;;8.60;99.00;;;;;;5025587;28;20298;-73
2023/02/08 09:39:21;;;;;;;7.68;6.85;;;9.00;98.60;;;;;;5033520;28;20554;-73
2023/02/08 09:42:23;;;;;;;7.00;6.40;;;9.50;97.40;;;;;;5021395;28;20286;-73
2023/02/08 09:45:03;;;;;;;7.10;6.40;;;9.70;96.60;;;;;;5014775;28;20314;-74
2023/02/08 09:47:34;;;;;;;7.10;6.40;;;9.70;96.10;;;;;;5020921;28;20283;-72
2023/02/08 09:50:05;;;;;;;7.15;6.45;;;9.60;95.80;;;;;;5025815;28;20307;-74
2023/02/08 09:52:39;;;;;;;7.80;7.00;;;9.50;96.00;;;;;;5031140;28;20198;-73
2023/02/08 09:55:20;;;;;;;8.52;6.50;;;9.20;95.70;;;;;;5023980;28;20330;-73
2023/02/08 09:57:48;;;;;;;8.07;7.28;;;9.10;96.70;;;;;;5029396;28;20230;-73
2023/02/08 10:00:22;;;;;;;8.05;7.30;;;9.00;97.40;;;;;;5024332;28;20715;-74
2023/02/08 10:02:54;;;;;;;7.53;6.65;;;8.80;96.80;;;;;;5019232;28;20299;-72
2023/02/08 10:05:24;;;;;;;7.72;6.93;;;9.00;97.40;;;;;;5020496;28;20257;-74
2023/02/08 10:07:52;;;;;;;7.72;7.00;;;9.00;96.40;;;;;;5007397;28;20206;-73
2023/02/08 10:10:24;;;;;;;6.90;6.38;;;9.10;97.00;;;;;;5021596;28;20314;-73
2023/02/08 10:12:59;;;;;;;7.43;6.75;;;9.10;96.10;;;;;;5024075;28;20623;-73
2023/02/08 10:15:37;;;;;;;7.70;7.00;;;9.10;96.40;;;;;;5026402;28;20305;-73
2023/02/08 10:18:32;;;;;;;8.75;6.47;;;9.10;97.10;;;;;;5022338;28;20282;-73
2023/02/08 10:21:16;;;;;;;8.95;7.45;;;9.30;96.10;;;;;;5014605;28;20310;-73
2023/02/08 10:24:01;;;;;;;7.53;6.80;;;9.40;95.90;;;;;;5028954;28;20298;-73
2023/02/08 10:26:34;;;;;;;6.90;6.20;;;9.60;95.50;;;;;;5026911;28;20315;-72
2023/02/08 10:29:29;;;;;;;7.88;7.00;;;9.50;94.40;;;;;;5022435;28;20199;-72
2023/02/08 10:32:27;;;;;;;8.48;7.18;;;9.20;93.80;;;;;;5024590;28;21159;-73
2023/02/08 10:35:00;;;;;;;8.48;7.68;;;9.10;93.70;;;;;;5016656;28;20660;-72
2023/02/08 10:37:33;;;;;;;7.80;7.00;;;8.90;94.50;;;;;;5025674;28;20290;-71
2023/02/08 10:40:13;;;;;;;7.93;7.18;;;9.10;95.00;;;;;;5026076;28;20228;-73
2023/02/08 10:42:42;;;;;;;8.35;7.55;;;9.30;95.30;;;;;;5020329;28;20215;-73
2023/02/08 10:45:27;;;;;;;7.35;6.75;;;9.40;94.00;;;;;;5019703;28;20310;-73
2023/02/08 10:47:58;;;;;;;7.38;6.75;;;9.70;94.10;;;;;;5023266;28;20287;-72
2023/02/08 10:50:34;;;;;;;8.02;7.22;;;9.80;93.90;;;;;;5025091;28;20298;-73
2023/02/08 10:53:01;;;;;;;8.68;7.80;;;9.90;93.10;;;;;;5027557;28;20500;-72
2023/02/08 10:55:31;;;;;;;9.45;7.68;;;9.60;93.30;;;;;;5027485;28;20306;-73
2023/02/08 10:58:01;;;;;;;9.05;7.88;;;9.50;92.40;;;;;;5018425;28;20287;-73
2023/02/08 11:00:31;;;;;;;8.38;7.50;;;9.30;93.70;;;;;;5017872;28;20786;-73
2023/02/08 11:03:03;;;;;;;8.52;7.72;;;9.60;94.10;;;;;;5024046;28;20303;-71
2023/02/08 11:05:36;;;;;;;8.30;7.00;;;9.60;92.90;;;;;;5020410;28;20230;-73
2023/02/08 11:08:09;;;;;;;8.25;7.40;;;9.40;93.50;;;;;;5020182;28;20571;-72
2023/02/08 11:10:39;;;;;;;8.65;7.85;;;9.20;93.00;;;;;;5023305;28;20215;-71
2023/02/08 11:13:16;;;;;;;8.48;7.68;;;9.40;92.00;;;;;;5018169;28;20282;-73
2023/02/08 11:15:47;;;;;;;8.73;7.93;;;9.30;92.40;;;;;;5020916;28;20598;-74
2023/02/08 11:18:22;;;;;;;8.70;7.45;;;9.10;92.40;;;;;;5024388;28;20330;-72
2023/02/08 11:20:53;;;;;;;8.35;7.53;;;9.30;92.60;;;;;;5026641;28;20314;-73
2023/02/08 11:23:24;;;;;;;9.30;7.60;;;9.30;91.90;;;;;;5030504;28;20224;-73
2023/02/08 11:25:52;;;;;;;8.48;7.70;;;9.30;91.60;;;;;;5022481;28;20757;-72
2023/02/08 11:28:25;;;;;;;8.82;8.02;;;9.30;92.00;;;;;;5030658;28;20283;-74
2023/02/08 11:30:58;;;;;;;9.30;8.40;;;9.60;91.70;;;;;;5030217;28;20227;-73
2023/02/08 11:33:26;;;;;;;7.70;7.00;;;9.80;92.00;;;;;;5026388;28;20282;-73
2023/02/08 11:36:06;;;;;;;9.02;8.13;;;9.90;91.30;;;;;;5014048;28;20436;-73
2023/02/08 11:38:35;;;;;;;8.48;7.57;;;9.60;90.90;;;;;;5019891;28;20299;-73
2023/02/08 11:41:13;;;;;;;7.60;6.95;;;9.40;90.50;;;;;;5022850;28;20310;-73
2023/02/08 11:43:41;;;;;;;8.23;7.50;;;9.60;91.30;;;;;;5026400;28;20322;-73
2023/02/08 11:46:10;;;;;;;10.23;7.75;;;9.80;91.20;;;;;;5015669;28;20322;-73
2023/02/08 11:48:46;;;;;;;8.60;7.80;;;9.80;89.80;;;;;;5019622;28;20296;-73
2023/02/08 11:51:25;;;;;;;8.98;8.07;;;9.50;90.30;;;;;;5019199;28;20223;-71
2023/02/08 11:53:54;;;;;;;8.30;7.57;;;8.80;89.60;;;;;;5026007;28;20290;-74
2023/02/08 11:56:23;;;;;;;7.38;6.68;;;8.80;90.70;;;;;;5016008;28;20294;-73
2023/02/08 11:58:59;;;;;;;8.73;7.93;;;9.00;91.10;;;;;;5034826;28;20286;-71
2023/02/08 12:01:28;;;;;;;7.65;7.00;;;9.00;90.90;;;;;;5031582;28;20314;-72
2023/02/08 12:03:57;;;;;;;7.45;6.82;;;8.80;90.80;;;;;;5031086;28;20306;-73
2023/02/08 12:06:43;;;;;;;9.23;7.55;;;9.00;90.40;;;;;;5020135;28;20311;-72
2023/02/08 12:09:23;;;;;;;10.02;8.02;;;9.00;93.30;;;;;;5023411;28;20287;-73
2023/02/08 12:12:03;;;;;;;8.25;7.47;;;9.50;95.60;;;;;;5027805;28;20290;-73
2023/02/08 12:14:48;;;;;;;8.48;7.20;;;9.50;95.00;;;;;;5016749;28;20788;-74
2023/02/08 12:17:46;;;;;;;8.70;7.90;;;9.80;93.10;;;;;;5029843;28;20290;-72
2023/02/08 12:20:36;;;;;;;7.60;6.90;;;9.90;91.80;;;;;;5029145;28;20299;-73
2023/02/08 12:23:24;;;;;;;8.07;7.28;;;9.80;90.60;;;;;;5025992;28;20231;-73
2023/02/08 12:26:02;;;;;;;8.48;7.68;;;9.40;89.80;;;;;;5024735;28;20318;-74
2023/02/08 12:28:45;;;;;;;8.07;7.32;;;9.20;90.80;;;;;;5020086;28;20291;-73
2023/02/08 12:31:19;;;;;;;8.88;8.07;;;9.30;91.50;;;;;;5026323;28;20342;-73
2023/02/08 12:33:57;;;;;;;9.00;8.20;;;9.60;90.60;;;;;;5028512;28;20234;-73
2023/02/08 12:36:43;;;;;;;10.35;8.75;;;9.80;90.50;;;;;;5026660;28;20305;-73
2023/02/08 12:42:33;;;;;;;8.57;7.80;;;9.70;90.50;;;;;;5026242;28;20261;-73
2023/02/08 12:45:31;;;;;;;8.63;7.82;;;10.10;90.50;;;;;;5022396;28;20669;-73
2023/02/08 12:48:11;;;;;;;8.88;8.07;;;10.30;90.90;;;;;;5027807;28;20335;-73
2023/02/08 12:50:44;;;;;;;8.70;7.90;;;9.90;89.60;;;;;;5033279;28;20311;-72
2023/02/08 12:53:19;;;;;;;9.82;8.63;;;9.40;88.80;;;;;;5030884;28;20294;-72
2023/02/08 12:55:49;;;;;;;9.07;8.27;;;9.20;90.30;;;;;;5028267;28;20219;-73
2023/02/08 12:58:27;;;;;;;8.98;8.18;;;9.20;91.50;;;;;;5024059;28;20283;-74
2023/02/08 13:00:56;;;;;;;8.88;7.97;;;9.30;90.50;;;;;;5025137;28;20218;-74
2023/02/08 13:03:36;;;;;;;9.02;8.18;;;9.00;91.00;;;;;;5029128;28;20758;-74
2023/02/08 13:06:07;;;;;;;8.40;7.60;;;8.90;90.90;;;;;;5032990;28;20742;-73
2023/02/08 13:08:41;;;;;;;9.27;8.38;;;9.10;90.50;;;;;;5026099;28;20291;-73